createdAt,value
2022-08-18T00:02:21.980Z,7.13
2022-08-18T00:04:53.087Z,7.80
2022-08-18T00:07:31.748Z,8.20
2022-08-18T00:10:00.201Z,7.70
2022-08-18T00:12:33.440Z,7.63
2022-08-18T00:15:05.531Z,7.90
2022-08-18T00:17:59.497Z,7.95
2022-08-18T00:20:26.407Z,7.47
2022-08-18T00:22:53.674Z,7.72
2022-08-18T00:25:20.941Z,7.03
2022-08-18T00:27:51.339Z,7.72
2022-08-18T00:30:20.293Z,7.35
2022-08-18T00:32:54.146Z,7.80
2022-08-18T00:35:29.422Z,6.28
2022-08-18T00:37:58.709Z,6.07
2022-08-18T00:40:37.872Z,6.35
2022-08-18T00:43:07.229Z,5.28
2022-08-18T00:45:38.069Z,6.07
2022-08-18T00:48:06.290Z,5.93
2022-08-18T00:50:40.423Z,5.88
2022-08-18T00:53:31.489Z,5.10
2022-08-18T00:56:04.954Z,5.70
2022-08-18T00:58:37.431Z,4.72
2022-08-18T01:01:06.687Z,5.05
2022-08-18T01:03:36.347Z,4.00
2022-08-18T01:06:15.146Z,5.30
2022-08-18T01:08:42.796Z,5.18
2022-08-18T01:11:10.588Z,4.65
2022-08-18T01:13:41.604Z,5.05
2022-08-18T01:16:27.265Z,5.10
2022-08-18T01:19:13.376Z,4.68
2022-08-18T01:21:52.545Z,4.78
2022-08-18T01:24:49.229Z,4.97
2022-08-18T01:27:18.971Z,5.18
2022-08-18T01:29:48.684Z,5.50
2022-08-18T01:32:19.798Z,5.80
2022-08-18T01:34:49.292Z,5.70
2022-08-18T01:37:18.797Z,6.13
2022-08-18T01:41:01.001Z,6.38
2022-08-18T01:42:34.309Z,6.05
2022-08-18T01:45:03.924Z,6.70
2022-08-18T01:47:47.880Z,5.97
2022-08-18T01:50:17.350Z,6.15
2022-08-18T01:52:44.580Z,6.95
2022-08-18T01:55:11.481Z,6.80
2022-08-18T01:57:44.960Z,5.75
2022-08-18T02:00:14.898Z,6.68
2022-08-18T02:02:42.845Z,7.13
2022-08-18T02:05:16.279Z,7.45
2022-08-18T02:07:43.365Z,6.70
2022-08-18T02:10:12.470Z,7.03
2022-08-18T02:12:43.891Z,6.97
2022-08-18T02:15:11.923Z,8.25
2022-08-18T02:17:40.719Z,9.00
2022-08-18T02:20:10.066Z,7.85
2022-08-18T02:22:37.833Z,8.57
2022-08-18T02:25:06.793Z,8.23
2022-08-18T02:27:35.270Z,7.72
2022-08-18T02:30:05.564Z,8.55
2022-08-18T02:32:33.072Z,9.15
2022-08-18T02:35:00.519Z,8.65
2022-08-18T02:37:27.517Z,8.52
2022-08-18T02:39:54.397Z,9.13
2022-08-18T02:42:21.641Z,9.63
2022-08-18T02:44:48.791Z,9.57
2022-08-18T02:47:15.707Z,10.45
2022-08-18T02:49:42.721Z,8.90
2022-08-18T02:52:09.638Z,10.38
2022-08-18T02:54:36.605Z,10.05
2022-08-18T02:57:08.540Z,9.95
2022-08-18T02:59:36.768Z,11.33
2022-08-18T03:02:08.738Z,11.73
2022-08-18T03:04:36.174Z,11.00
2022-08-18T03:07:05.906Z,10.38
2022-08-18T03:09:34.469Z,10.70
2022-08-18T03:12:01.792Z,11.27
2022-08-18T03:14:29.583Z,11.13
2022-08-18T03:16:57.040Z,11.60
2022-08-18T03:19:25.692Z,11.65
2022-08-18T03:21:53.000Z,11.73
2022-08-18T03:24:22.934Z,11.35
2022-08-18T03:26:52.833Z,10.75
2022-08-18T03:29:20.718Z,10.98
2022-08-18T03:31:48.739Z,10.82
2022-08-18T03:34:19.942Z,11.60
2022-08-18T03:36:49.213Z,12.48
2022-08-18T03:39:17.431Z,12.05
2022-08-18T03:41:58.838Z,13.30
2022-08-18T03:47:03.146Z,13.45
2022-08-18T03:49:33.497Z,13.30
2022-08-18T03:52:01.421Z,13.02
2022-08-18T03:54:29.639Z,13.45
2022-08-18T03:56:56.733Z,12.85
2022-08-18T03:59:25.512Z,13.98
2022-08-18T04:01:54.175Z,14.10
2022-08-18T04:04:25.360Z,13.00
2022-08-18T04:06:59.252Z,13.35
2022-08-18T04:09:29.452Z,13.38
2022-08-18T04:11:57.929Z,13.52
2022-08-18T04:14:32.714Z,13.60
2022-08-18T04:17:00.221Z,14.95
2022-08-18T04:19:28.133Z,13.43
2022-08-18T04:21:58.359Z,14.48
2022-08-18T04:24:31.886Z,14.13
2022-08-18T04:27:01.211Z,14.57
2022-08-18T04:29:28.707Z,14.10
2022-08-18T04:31:56.141Z,14.25
2022-08-18T04:34:23.318Z,14.10
2022-08-18T04:36:54.233Z,13.80
2022-08-18T04:39:22.663Z,13.55
2022-08-18T04:41:50.134Z,15.02
2022-08-18T04:44:18.255Z,15.40
2022-08-18T04:46:49.393Z,15.40
2022-08-18T04:49:18.801Z,14.15
2022-08-18T04:52:38.972Z,13.73
2022-08-18T04:54:56.215Z,14.35
2022-08-18T04:57:24.182Z,14.30
2022-08-18T04:59:52.597Z,13.63
2022-08-18T05:02:21.630Z,14.63
2022-08-18T05:04:48.683Z,14.02
2022-08-18T05:07:20.203Z,14.45
2022-08-18T05:09:48.439Z,15.07
2022-08-18T05:12:16.424Z,15.05
2022-08-18T05:14:45.783Z,14.52
2022-08-18T05:17:14.550Z,14.45
2022-08-18T05:19:44.499Z,13.95
2022-08-18T05:22:18.390Z,13.10
2022-08-18T05:24:47.156Z,15.57
2022-08-18T05:27:14.653Z,14.45
2022-08-18T05:29:46.130Z,15.10
2022-08-18T05:32:37.264Z,15.03
2022-08-18T05:35:13.767Z,15.73
2022-08-18T05:38:21.863Z,15.55
2022-08-18T05:41:07.746Z,12.57
2022-08-18T05:43:52.044Z,14.60
2022-08-18T05:46:47.665Z,12.77
2022-08-18T05:49:15.798Z,12.93
2022-08-18T05:51:49.538Z,12.32
2022-08-18T05:54:38.063Z,12.55
2022-08-18T05:57:11.843Z,10.40
2022-08-18T05:59:41.053Z,10.77
2022-08-18T06:02:08.077Z,10.77
2022-08-18T06:04:51.163Z,13.57
2022-08-18T06:07:34.701Z,12.73
2022-08-18T06:10:06.598Z,11.90
2022-08-18T06:12:37.337Z,11.80
2022-08-18T06:15:31.380Z,13.55
2022-08-18T06:18:27.159Z,14.32
2022-08-18T06:21:58.667Z,14.27
2022-08-18T06:25:01.481Z,15.40
2022-08-18T06:27:51.768Z,15.77
2022-08-18T06:30:42.603Z,21.20
2022-08-18T06:33:09.595Z,21.23
2022-08-18T06:35:48.506Z,26.48
2022-08-18T06:38:45.325Z,25.95
2022-08-18T06:41:41.858Z,23.67
2022-08-18T06:44:31.371Z,30.30
2022-08-18T06:47:08.156Z,31.70
2022-08-18T06:49:39.862Z,33.35
2022-08-18T06:52:19.244Z,35.20
2022-08-18T06:54:51.261Z,33.63
2022-08-18T06:57:28.448Z,36.33
2022-08-18T06:59:59.995Z,39.83
2022-08-18T07:02:48.503Z,37.60
2022-08-18T07:05:19.731Z,37.45
2022-08-18T07:08:00.811Z,34.50
2022-08-18T07:10:34.753Z,33.83
2022-08-18T07:13:26.246Z,33.65
2022-08-18T07:16:15.822Z,34.95
2022-08-18T07:18:44.316Z,35.67
2022-08-18T07:21:32.184Z,37.35
2022-08-18T07:24:24.367Z,34.80
2022-08-18T07:27:20.942Z,33.10
2022-08-18T07:30:03.735Z,30.90
2022-08-18T07:32:39.422Z,30.48
2022-08-18T07:35:08.487Z,31.95
2022-08-18T07:38:00.592Z,32.60
2022-08-18T07:40:45.152Z,28.42
2022-08-18T07:43:27.414Z,27.73
2022-08-18T07:46:03.596Z,28.90
2022-08-18T07:48:38.529Z,28.65
2022-08-18T07:51:09.428Z,26.92
2022-08-18T07:54:02.531Z,28.98
2022-08-18T07:59:25.604Z,29.13
2022-08-18T08:02:23.833Z,30.70
2022-08-18T08:05:02.664Z,29.08
2022-08-18T08:07:46.211Z,28.00
2022-08-18T08:10:29.635Z,26.70
2022-08-18T08:13:09.213Z,28.77
2022-08-18T08:16:12.001Z,29.05
2022-08-18T08:19:03.153Z,31.63
2022-08-18T08:21:53.047Z,26.25
2022-08-18T08:24:39.517Z,27.83
2022-08-18T08:27:35.277Z,28.20
2022-08-18T08:30:18.511Z,28.45
2022-08-18T08:33:13.632Z,27.75
2022-08-18T08:35:55.299Z,27.88
2022-08-18T08:38:43.039Z,29.10
2022-08-18T08:41:22.471Z,28.58
2022-08-18T08:44:23.702Z,27.45
2022-08-18T08:46:56.510Z,24.45
2022-08-18T08:49:47.132Z,28.35
2022-08-18T08:53:00.485Z,30.30
2022-08-18T08:55:35.600Z,28.25
2022-08-18T08:58:15.192Z,27.83
2022-08-18T09:00:43.118Z,28.90
2022-08-18T09:03:48.330Z,28.48
2022-08-18T09:06:39.472Z,25.17
2022-08-18T09:09:31.322Z,29.77
2022-08-18T09:12:14.817Z,26.42
2022-08-18T09:15:02.662Z,26.17
2022-08-18T09:17:41.618Z,28.83
2022-08-18T09:20:26.739Z,24.45
2022-08-18T09:23:13.897Z,29.92
2022-08-18T09:25:43.581Z,27.27
2022-08-18T09:28:18.200Z,26.42
2022-08-18T09:34:07.208Z,27.70
2022-08-18T09:36:49.859Z,28.25
2022-08-18T09:39:53.157Z,25.73
2022-08-18T09:42:51.227Z,30.00
2022-08-18T09:45:33.577Z,31.55
2022-08-18T09:48:02.155Z,24.75
2022-08-18T09:50:29.001Z,26.40
2022-08-18T09:53:15.786Z,26.92
2022-08-18T09:55:57.958Z,28.02
2022-08-18T09:58:29.195Z,30.02
2022-08-18T10:01:33.125Z,27.92
2022-08-18T10:04:15.566Z,27.33
2022-08-18T10:09:51.558Z,28.63
2022-08-18T10:12:45.658Z,27.65
2022-08-18T10:18:03.399Z,27.40
2022-08-18T10:20:38.801Z,25.95
2022-08-18T10:23:08.859Z,27.27
2022-08-18T10:25:38.770Z,28.17
2022-08-18T10:28:10.097Z,26.88
2022-08-18T10:30:56.848Z,27.23
2022-08-18T10:33:51.840Z,22.77
2022-08-18T10:36:42.127Z,26.25
2022-08-18T10:39:20.414Z,24.58
2022-08-18T10:41:56.932Z,25.73
2022-08-18T10:44:29.755Z,26.08
2022-08-18T10:47:00.379Z,20.30
2022-08-18T10:49:31.998Z,22.45
2022-08-18T10:52:28.322Z,25.97
2022-08-18T10:55:06.273Z,22.50
2022-08-18T10:57:49.372Z,26.20
2022-08-18T11:00:20.591Z,22.80
2022-08-18T11:03:42.216Z,24.58
2022-08-18T11:06:06.622Z,24.20
2022-08-18T11:08:48.278Z,21.50
2022-08-18T11:11:37.435Z,19.90
2022-08-18T11:14:54.477Z,20.08
2022-08-18T11:17:46.432Z,23.95
2022-08-18T11:20:18.164Z,21.50
2022-08-18T11:22:56.509Z,21.92
2022-08-18T11:25:29.106Z,19.70
2022-08-18T11:27:57.564Z,16.73
2022-08-18T11:30:35.334Z,16.48
2022-08-18T11:33:04.134Z,16.10
2022-08-18T11:35:46.933Z,16.25
2022-08-18T11:38:22.287Z,12.68
2022-08-18T11:41:11.691Z,20.15
2022-08-18T11:43:43.141Z,18.45
2022-08-18T11:46:27.920Z,18.92
2022-08-18T11:48:57.300Z,17.67
2022-08-18T11:51:28.506Z,20.52
2022-08-18T11:54:21.927Z,17.92
2022-08-18T11:56:50.662Z,16.60
2022-08-18T11:59:54.021Z,17.20
2022-08-18T12:02:18.381Z,14.57
2022-08-18T12:04:52.896Z,14.07
2022-08-18T12:07:35.967Z,16.52
2022-08-18T12:13:00.673Z,15.80
2022-08-18T12:15:43.436Z,14.73
2022-08-18T12:21:05.793Z,14.30
2022-08-18T12:23:39.223Z,14.48
2022-08-18T12:29:05.153Z,11.93
2022-08-18T12:31:41.989Z,11.85
2022-08-18T12:34:15.639Z,14.13
2022-08-18T12:36:42.858Z,14.35
2022-08-18T12:39:10.631Z,13.07
2022-08-18T12:41:38.027Z,12.65
2022-08-18T12:44:09.929Z,11.82
2022-08-18T12:46:42.767Z,11.25
2022-08-18T12:49:22.205Z,11.52
2022-08-18T12:51:50.248Z,12.80
2022-08-18T12:54:20.191Z,12.35
2022-08-18T12:56:51.731Z,11.95
2022-08-18T12:59:19.021Z,11.47
2022-08-18T13:01:46.823Z,10.65
2022-08-18T13:04:15.595Z,11.38
2022-08-18T13:06:59.607Z,11.27
2022-08-18T13:09:48.057Z,10.40
2022-08-18T13:12:20.004Z,10.60
2022-08-18T13:14:47.971Z,9.23
2022-08-18T13:17:32.318Z,9.20
2022-08-18T13:20:05.622Z,12.60
2022-08-18T13:22:33.376Z,10.85
2022-08-18T13:25:06.819Z,10.75
2022-08-18T13:27:37.417Z,10.80
2022-08-18T13:30:30.054Z,8.85
2022-08-18T13:33:02.426Z,9.90
2022-08-18T13:35:35.130Z,10.25
2022-08-18T13:38:12.404Z,11.98
2022-08-18T13:40:47.043Z,11.77
2022-08-18T13:43:15.632Z,14.32
2022-08-18T13:45:52.655Z,15.40
2022-08-18T13:48:20.323Z,16.23
2022-08-18T13:50:47.476Z,16.92
2022-08-18T13:55:49.239Z,15.32
2022-08-18T13:58:17.492Z,17.15
2022-08-18T14:00:52.392Z,14.98
2022-08-18T14:03:42.922Z,16.45
2022-08-18T14:06:13.010Z,18.90
2022-08-18T14:08:41.243Z,17.95
2022-08-18T14:11:09.627Z,15.98
2022-08-18T14:13:38.319Z,13.88
2022-08-18T14:16:18.861Z,16.38
2022-08-18T14:19:09.751Z,17.33
2022-08-18T14:22:01.231Z,14.15
2022-08-18T14:24:48.909Z,16.08
2022-08-18T14:27:17.526Z,16.15
2022-08-18T14:29:48.188Z,14.27
2022-08-18T14:32:28.566Z,13.23
2022-08-18T14:36:04.649Z,14.43
2022-08-18T14:37:48.974Z,14.98
2022-08-18T14:40:17.352Z,14.65
2022-08-18T14:42:54.825Z,14.68
2022-08-18T14:45:34.292Z,13.32
2022-08-18T14:48:07.255Z,12.27
2022-08-18T14:50:36.069Z,11.88
2022-08-18T14:53:04.978Z,10.63
2022-08-18T14:55:32.285Z,8.90
2022-08-18T14:57:59.553Z,9.48
2022-08-18T15:00:28.043Z,9.20
2022-08-18T15:02:55.384Z,9.82
2022-08-18T15:05:24.393Z,9.25
2022-08-18T15:07:52.918Z,12.30
2022-08-18T15:10:23.690Z,11.15
2022-08-18T15:12:55.467Z,10.50
2022-08-18T15:15:22.901Z,11.02
2022-08-18T15:17:52.914Z,10.43
2022-08-18T15:20:23.880Z,10.27
2022-08-18T15:23:17.984Z,8.85
2022-08-18T15:25:51.074Z,8.20
2022-08-18T15:28:19.918Z,8.07
2022-08-18T15:30:51.178Z,8.32
2022-08-18T15:33:23.551Z,7.30
2022-08-18T15:35:52.039Z,7.38
2022-08-18T15:38:21.344Z,7.32
2022-08-18T15:40:57.293Z,6.78
2022-08-18T15:43:31.384Z,6.72
2022-08-18T15:46:00.409Z,7.28
2022-08-18T15:48:30.732Z,8.10
2022-08-18T15:50:57.724Z,7.28
2022-08-18T15:53:39.924Z,7.38
2022-08-18T15:56:16.764Z,7.32
2022-08-18T15:58:49.160Z,6.57
2022-08-18T16:01:30.433Z,6.95
2022-08-18T16:04:01.323Z,6.35
2022-08-18T16:06:32.089Z,6.78
2022-08-18T16:09:00.748Z,7.45
2022-08-18T16:11:29.643Z,6.82
2022-08-18T16:13:58.975Z,6.32
2022-08-18T16:16:35.688Z,7.55
2022-08-18T16:19:05.640Z,6.35
2022-08-18T16:21:33.059Z,8.00
2022-08-18T16:24:00.159Z,7.05
2022-08-18T16:26:27.119Z,6.90
2022-08-18T16:28:54.237Z,7.35
2022-08-18T16:31:26.550Z,7.57
2022-08-18T16:33:55.085Z,7.50
2022-08-18T16:36:26.672Z,7.30
2022-08-18T16:38:56.178Z,7.75
2022-08-18T16:41:26.727Z,6.80
2022-08-18T16:43:56.244Z,7.35
2022-08-18T16:46:26.489Z,7.95
2022-08-18T16:48:56.405Z,8.07
2022-08-18T16:51:25.903Z,8.93
2022-08-18T16:53:54.481Z,7.75
2022-08-18T16:56:27.232Z,8.15
2022-08-18T16:59:13.218Z,7.85
2022-08-18T17:02:01.050Z,8.32
2022-08-18T17:04:33.492Z,7.82
2022-08-18T17:07:05.034Z,7.85
2022-08-18T17:09:33.457Z,8.27
2022-08-18T17:12:01.358Z,8.07
2022-08-18T17:14:30.006Z,8.13
2022-08-18T17:16:58.531Z,7.45
2022-08-18T17:19:27.962Z,8.85
2022-08-18T17:21:54.977Z,7.43
2022-08-18T17:24:31.314Z,7.55
2022-08-18T17:27:26.292Z,7.65
2022-08-18T17:30:07.092Z,7.53
2022-08-18T17:32:43.149Z,7.80
2022-08-18T17:35:20.258Z,7.57
2022-08-18T17:38:12.807Z,7.53
2022-08-18T17:40:45.598Z,6.90
2022-08-18T17:43:17.232Z,7.05
2022-08-18T17:45:46.958Z,8.53
2022-08-18T17:48:17.882Z,7.45
2022-08-18T17:51:10.126Z,7.75
2022-08-18T17:53:37.441Z,7.15
2022-08-18T17:56:14.896Z,7.03
2022-08-18T17:58:48.749Z,7.07
2022-08-18T18:01:17.546Z,7.75
2022-08-18T18:03:46.940Z,7.93
2022-08-18T18:06:35.188Z,7.68
2022-08-18T18:09:13.444Z,7.07
2022-08-18T18:11:47.047Z,6.85
2022-08-18T18:14:39.499Z,7.05
2022-08-18T18:17:30.828Z,7.57
2022-08-18T18:20:23.375Z,7.18
2022-08-18T18:22:52.214Z,6.97
2022-08-18T18:25:34.603Z,6.82
2022-08-18T18:28:02.047Z,6.28
2022-08-18T18:30:32.855Z,7.20
2022-08-18T18:33:05.549Z,6.90
2022-08-18T18:38:28.418Z,6.03
2022-08-18T18:41:12.479Z,6.85
2022-08-18T18:43:46.866Z,6.45
2022-08-18T18:46:18.826Z,6.00
2022-08-18T18:49:05.934Z,6.13
2022-08-18T18:51:52.398Z,5.78
2022-08-18T18:54:49.961Z,5.97
2022-08-18T18:57:32.015Z,5.82
2022-08-18T19:00:18.235Z,5.57
2022-08-18T19:02:58.314Z,6.28
2022-08-18T19:05:42.742Z,5.90
2022-08-18T19:08:12.652Z,5.53
2022-08-18T19:10:54.077Z,5.40
2022-08-18T19:13:39.293Z,5.88
2022-08-18T19:16:24.296Z,5.05
2022-08-18T19:19:37.896Z,4.85
2022-08-18T19:22:07.244Z,5.30
2022-08-18T19:24:53.783Z,5.93
2022-08-18T19:27:28.222Z,5.80
2022-08-18T19:30:01.786Z,5.47
2022-08-18T19:32:39.902Z,5.82
2022-08-18T19:35:12.053Z,5.00
2022-08-18T19:40:21.243Z,4.30
2022-08-18T19:42:58.728Z,4.75
2022-08-18T19:45:40.807Z,4.25
2022-08-18T19:48:23.848Z,4.80
2022-08-18T19:51:18.127Z,5.03
2022-08-18T19:54:09.462Z,4.20
2022-08-18T19:56:36.437Z,5.22
2022-08-18T19:59:34.029Z,4.78
2022-08-18T20:02:16.046Z,4.55
2022-08-18T20:04:59.215Z,4.75
2022-08-18T20:07:48.990Z,4.75
2022-08-18T20:10:41.236Z,4.45
2022-08-18T20:13:27.648Z,3.88
2022-08-18T20:16:43.894Z,5.13
2022-08-18T20:19:49.869Z,4.35
2022-08-18T20:22:24.492Z,4.47
2022-08-18T20:24:54.054Z,3.70
2022-08-18T20:27:30.244Z,4.93
2022-08-18T20:30:23.511Z,4.80
2022-08-18T20:33:09.984Z,4.72
2022-08-18T20:36:21.766Z,4.47
2022-08-18T20:38:54.468Z,4.18
2022-08-18T20:44:13.230Z,4.15
2022-08-18T20:47:04.323Z,4.15
2022-08-18T20:50:13.292Z,4.53
2022-08-18T20:52:49.235Z,4.53
2022-08-18T20:55:36.297Z,4.15
2022-08-18T20:58:17.391Z,4.20
2022-08-18T21:00:49.422Z,4.13
2022-08-18T21:03:20.558Z,4.32
2022-08-18T21:05:50.370Z,4.25
2022-08-18T21:08:28.815Z,3.92
2022-08-18T21:11:10.103Z,4.18
2022-08-18T21:13:51.464Z,4.13
2022-08-18T21:16:38.201Z,4.40
2022-08-18T21:19:32.312Z,4.00
2022-08-18T21:22:02.154Z,4.07
2022-08-18T21:24:43.929Z,4.50
2022-08-18T21:27:16.040Z,4.68
2022-08-18T21:29:49.338Z,4.30
2022-08-18T21:32:31.625Z,4.63
2022-08-18T21:35:05.666Z,4.30
2022-08-18T21:37:40.552Z,4.10
2022-08-18T21:40:08.281Z,4.28
2022-08-18T21:42:44.090Z,4.47
2022-08-18T21:45:23.234Z,4.70
2022-08-18T21:47:56.732Z,3.90
2022-08-18T21:50:27.345Z,4.55
2022-08-18T21:52:54.590Z,4.35
2022-08-18T21:55:32.737Z,4.65
2022-08-18T21:58:19.745Z,4.68
2022-08-18T22:01:18.988Z,4.80
2022-08-18T22:04:18.202Z,4.57
2022-08-18T22:06:52.911Z,4.38
2022-08-18T22:09:47.575Z,5.03
2022-08-18T22:12:50.466Z,4.28
2022-08-18T22:15:27.803Z,4.55
2022-08-18T22:18:05.475Z,4.47
2022-08-18T22:20:44.504Z,4.63
2022-08-18T22:23:33.042Z,4.80
2022-08-18T22:26:17.164Z,5.13
2022-08-18T22:28:53.073Z,5.80
2022-08-18T22:31:21.384Z,5.35
2022-08-18T22:33:49.755Z,5.05
2022-08-18T22:36:21.797Z,4.35
2022-08-18T22:38:49.626Z,5.30
2022-08-18T22:41:17.447Z,5.03
2022-08-18T22:43:45.272Z,5.07
2022-08-18T22:46:24.104Z,6.18
2022-08-18T22:48:52.706Z,5.20
2022-08-18T22:51:24.311Z,5.57
2022-08-18T22:53:51.474Z,4.45
2022-08-18T22:56:21.885Z,5.88
2022-08-18T22:59:05.876Z,5.05
2022-08-18T23:01:44.241Z,5.63
2022-08-18T23:04:11.227Z,5.38
2022-08-18T23:06:38.237Z,6.43
2022-08-18T23:09:05.987Z,5.63
2022-08-18T23:11:33.698Z,5.57
2022-08-18T23:14:02.146Z,5.07
2022-08-18T23:16:31.618Z,5.50
2022-08-18T23:19:02.096Z,4.88
2022-08-18T23:21:34.410Z,5.07
2022-08-18T23:24:04.439Z,4.95
2022-08-18T23:26:31.427Z,5.47
2022-08-18T23:28:58.537Z,5.22
2022-08-18T23:31:25.628Z,5.10
2022-08-18T23:33:52.531Z,4.95
2022-08-18T23:36:19.547Z,5.47
2022-08-18T23:38:46.501Z,5.05
2022-08-18T23:41:16.396Z,5.50
2022-08-18T23:43:43.293Z,5.15
2022-08-18T23:46:18.931Z,4.80
2022-08-18T23:48:49.725Z,5.60
2022-08-18T23:51:44.650Z,6.07
2022-08-18T23:54:24.456Z,5.35
2022-08-18T23:56:51.496Z,4.82
2022-08-18T23:59:20.684Z,5.63
